createdAt,value
2022-12-08T00:00:37.385Z,98.17
2022-12-08T00:05:58.247Z,98.25
2022-12-08T00:11:00.042Z,98.36
2022-12-08T00:16:02.204Z,98.44
2022-12-08T00:21:04.372Z,98.64
2022-12-08T00:26:07.142Z,98.66
2022-12-08T00:31:11.717Z,98.80
2022-12-08T00:36:15.047Z,98.82
2022-12-08T00:41:39.922Z,98.77
2022-12-08T00:46:42.003Z,98.59
2022-12-08T00:51:44.944Z,98.81
2022-12-08T00:56:46.741Z,98.79
2022-12-08T01:01:49.025Z,98.94
2022-12-08T01:06:50.957Z,98.79
2022-12-08T01:11:52.762Z,98.78
2022-12-08T01:16:54.638Z,98.66
2022-12-08T01:21:56.461Z,98.59
2022-12-08T01:26:58.248Z,98.69
2022-12-08T01:32:00.069Z,98.70
2022-12-08T01:37:01.813Z,98.57
2022-12-08T01:42:03.658Z,98.38
2022-12-08T01:47:05.702Z,98.34
2022-12-08T01:52:13.592Z,98.30
2022-12-08T01:57:24.356Z,98.28
2022-12-08T02:02:31.487Z,98.17
2022-12-08T02:07:34.594Z,98.23
2022-12-08T02:12:36.363Z,98.22
2022-12-08T02:17:38.045Z,98.17
2022-12-08T02:23:03.515Z,98.04
2022-12-08T02:28:11.348Z,98.19
2022-12-08T02:33:37.932Z,98.24
2022-12-08T02:39:01.088Z,98.22
2022-12-08T02:44:29.046Z,98.24
2022-12-08T02:49:35.367Z,98.47
2022-12-08T02:54:41.970Z,98.44
2022-12-08T03:00:01.571Z,98.37
2022-12-08T03:05:16.136Z,98.52
2022-12-08T03:10:24.657Z,98.55
2022-12-08T03:15:27.689Z,98.63
2022-12-08T03:20:31.243Z,98.61
2022-12-08T03:25:37.930Z,98.65
2022-12-08T03:30:43.150Z,98.54
2022-12-08T03:35:46.212Z,98.39
2022-12-08T03:41:10.536Z,98.28
2022-12-08T03:46:12.220Z,98.31
2022-12-08T03:51:14.712Z,98.19
2022-12-08T03:56:35.508Z,98.32
2022-12-08T04:01:37.437Z,98.24
2022-12-08T04:06:39.239Z,98.22
2022-12-08T04:11:40.918Z,98.29
2022-12-08T04:16:42.757Z,98.10
2022-12-08T04:21:44.453Z,98.24
2022-12-08T04:26:46.418Z,98.12
2022-12-08T04:31:48.189Z,97.95
2022-12-08T04:36:50.109Z,98.30
2022-12-08T04:41:51.863Z,98.34
2022-12-08T04:46:53.694Z,98.24
2022-12-08T04:51:55.455Z,98.28
2022-12-08T04:56:57.266Z,98.22
2022-12-08T05:01:59.153Z,98.33
2022-12-08T05:07:01.097Z,98.41
2022-12-08T05:12:02.851Z,98.56
2022-12-08T05:17:09.331Z,98.54
2022-12-08T05:22:11.659Z,98.61
2022-12-08T05:27:13.499Z,98.68
2022-12-08T05:32:15.303Z,98.52
2022-12-08T05:37:17.235Z,98.56
2022-12-08T05:42:24.373Z,98.57
2022-12-08T05:47:28.112Z,98.75
2022-12-08T05:52:32.385Z,98.57
2022-12-08T05:57:34.075Z,98.74
2022-12-08T06:02:36.002Z,98.67
2022-12-08T06:07:38.100Z,98.49
2022-12-08T06:12:40.509Z,98.68
2022-12-08T06:17:42.269Z,98.26
2022-12-08T06:22:43.983Z,98.32
2022-12-08T06:27:45.738Z,98.21
2022-12-08T06:32:47.546Z,98.28
2022-12-08T06:37:51.569Z,98.30
2022-12-08T06:42:53.295Z,98.16
2022-12-08T06:47:54.967Z,98.31
2022-12-08T06:53:04.901Z,98.33
2022-12-08T06:58:07.209Z,98.02
2022-12-08T07:03:10.542Z,97.84
2022-12-08T07:08:12.483Z,97.77
2022-12-08T07:13:14.330Z,97.71
2022-12-08T07:18:16.068Z,97.41
2022-12-08T07:23:17.796Z,97.38
2022-12-08T07:28:19.464Z,97.22
2022-12-08T07:33:21.152Z,97.11
2022-12-08T07:38:23.291Z,97.13
2022-12-08T07:43:25.084Z,96.96
2022-12-08T07:48:26.714Z,97.08
2022-12-08T07:53:28.554Z,97.12
2022-12-08T07:58:30.218Z,97.44
2022-12-08T08:03:32.073Z,97.70
2022-12-08T08:08:33.905Z,97.64
2022-12-08T08:13:35.975Z,97.57
2022-12-08T08:18:37.839Z,97.16
2022-12-08T08:23:39.540Z,97.30
2022-12-08T08:28:41.701Z,97.11
2022-12-08T08:33:43.449Z,96.56
2022-12-08T08:38:45.152Z,96.00
2022-12-08T08:43:46.925Z,96.12
2022-12-08T08:48:48.824Z,96.36
2022-12-08T08:53:50.784Z,96.32
2022-12-08T08:58:53.750Z,96.53
2022-12-08T09:03:56.516Z,96.52
2022-12-08T09:08:58.419Z,96.00
2022-12-08T09:14:00.176Z,94.71
2022-12-08T09:19:02.369Z,93.54
2022-12-08T09:24:04.166Z,92.79
2022-12-08T09:29:05.864Z,91.32
2022-12-08T09:34:07.563Z,90.62
2022-12-08T09:39:09.280Z,90.61
2022-12-08T09:44:29.322Z,90.35
2022-12-08T09:49:39.616Z,90.15
2022-12-08T09:54:41.251Z,89.68
2022-12-08T09:59:47.919Z,88.10
2022-12-08T10:04:50.221Z,88.13
2022-12-08T10:10:37.557Z,87.54
2022-12-08T10:16:29.792Z,86.50
2022-12-08T10:21:32.628Z,85.46
2022-12-08T10:26:34.492Z,85.57
2022-12-08T10:31:36.376Z,85.39
2022-12-08T10:36:49.583Z,84.74
2022-12-08T10:41:51.667Z,85.29
2022-12-08T10:46:53.522Z,84.72
2022-12-08T10:51:55.342Z,84.43
2022-12-08T10:56:57.486Z,82.73
2022-12-08T11:02:00.350Z,83.64
2022-12-08T11:07:06.119Z,84.11
2022-12-08T11:12:13.362Z,84.37
2022-12-08T11:17:23.514Z,84.44
2022-12-08T11:22:25.153Z,85.15
2022-12-08T11:27:27.345Z,85.87
2022-12-08T11:32:29.262Z,85.99
2022-12-08T11:37:41.785Z,86.02
2022-12-08T11:42:52.231Z,85.51
2022-12-08T11:48:01.893Z,86.35
2022-12-08T11:53:06.370Z,86.66
2022-12-08T11:58:26.923Z,86.73
2022-12-08T12:04:07.459Z,86.83
2022-12-08T12:09:22.725Z,87.14
2022-12-08T12:14:33.772Z,87.09
2022-12-08T12:19:39.826Z,87.42
2022-12-08T12:24:44.471Z,87.79
2022-12-08T12:29:56.716Z,87.78
2022-12-08T12:35:00.950Z,88.49
2022-12-08T12:40:17.424Z,89.04
2022-12-08T12:45:21.728Z,89.45
2022-12-08T12:50:33.097Z,89.92
2022-12-08T12:55:59.529Z,90.59
2022-12-08T13:01:10.129Z,91.09
2022-12-08T13:06:14.857Z,91.71
2022-12-08T13:11:18.404Z,91.98
2022-12-08T13:16:24.181Z,92.49
2022-12-08T13:21:33.367Z,92.89
2022-12-08T13:26:44.468Z,93.28
2022-12-08T13:31:51.931Z,93.56
2022-12-08T13:37:12.170Z,94.08
2022-12-08T13:42:24.990Z,94.52
2022-12-08T13:47:35.093Z,94.78
2022-12-08T13:58:02.799Z,95.35
2022-12-08T14:03:04.711Z,95.62
2022-12-08T14:08:36.365Z,95.92
2022-12-08T14:13:40.648Z,96.04
2022-12-08T14:18:42.381Z,96.08
2022-12-08T14:23:44.598Z,96.38
2022-12-08T14:28:46.481Z,96.69
2022-12-08T14:33:51.886Z,97.01
2022-12-08T14:38:58.213Z,97.26
2022-12-08T14:44:01.910Z,97.46
2022-12-08T14:49:04.239Z,97.60
2022-12-08T14:54:13.184Z,97.78
2022-12-08T14:59:27.097Z,98.06
2022-12-08T15:04:28.972Z,98.26
2022-12-08T15:09:44.420Z,98.27
2022-12-08T15:14:55.498Z,98.33
2022-12-08T15:19:58.997Z,98.05
2022-12-08T15:25:00.780Z,98.24
2022-12-08T15:30:02.563Z,98.37
2022-12-08T15:35:04.915Z,98.37
2022-12-08T15:40:11.078Z,98.39
2022-12-08T15:45:17.055Z,98.30
2022-12-08T15:50:21.475Z,98.49
2022-12-08T15:55:23.283Z,98.50
2022-12-08T16:00:51.847Z,98.55
2022-12-08T16:06:16.476Z,98.50
2022-12-08T16:12:04.094Z,98.70
2022-12-08T16:16:52.249Z,98.70
2022-12-08T16:32:50.287Z,98.79
2022-12-08T16:37:52.075Z,98.81
2022-12-08T16:42:53.997Z,98.84
2022-12-08T16:48:00.928Z,98.93
2022-12-08T16:53:06.147Z,98.79
2022-12-08T16:58:07.920Z,98.76
2022-12-08T17:03:13.487Z,98.84
2022-12-08T17:08:15.365Z,98.86
2022-12-08T17:13:17.671Z,98.93
2022-12-08T17:18:19.321Z,98.96
2022-12-08T17:23:21.051Z,98.97
2022-12-08T17:28:51.593Z,98.96
2022-12-08T17:33:45.917Z,98.88
2022-12-08T17:38:47.753Z,98.88
2022-12-08T17:43:49.430Z,98.94
2022-12-08T17:48:51.286Z,99.15
2022-12-08T17:53:53.045Z,98.87
2022-12-08T17:58:55.112Z,98.67
2022-12-08T18:03:58.170Z,98.39
2022-12-08T18:09:00.854Z,98.46
2022-12-08T18:14:09.869Z,98.49
2022-12-08T18:19:13.038Z,98.37
2022-12-08T18:24:22.078Z,98.50
2022-12-08T18:29:24.606Z,98.49
2022-12-08T18:34:26.343Z,98.58
2022-12-08T18:39:32.803Z,98.78
2022-12-08T18:44:34.484Z,98.62
2022-12-08T18:49:36.269Z,98.92
2022-12-08T18:55:08.650Z,99.00
2022-12-08T19:00:02.676Z,98.94
2022-12-08T19:05:06.193Z,99.04
2022-12-08T19:10:08.760Z,98.92
2022-12-08T19:15:11.090Z,99.00
2022-12-08T19:20:13.301Z,99.10
2022-12-08T19:25:15.038Z,99.25
2022-12-08T19:30:17.200Z,99.23
2022-12-08T19:35:19.044Z,99.38
2022-12-08T19:40:39.631Z,99.51
2022-12-08T19:45:41.408Z,99.67
2022-12-08T19:50:43.389Z,99.83
2022-12-08T19:55:45.200Z,99.72
2022-12-08T20:00:48.621Z,99.62
2022-12-08T20:05:53.085Z,99.72
2022-12-08T20:10:56.171Z,99.98
2022-12-08T20:15:58.573Z,100.00
2022-12-08T20:21:01.472Z,100.00
2022-12-08T20:26:08.804Z,100.00
2022-12-08T20:31:25.258Z,99.96
2022-12-08T20:36:27.561Z,99.99
2022-12-08T20:41:29.229Z,99.89
2022-12-08T20:46:31.184Z,99.84
2022-12-08T20:51:34.201Z,99.67
2022-12-08T20:56:36.560Z,99.75
2022-12-08T21:01:38.457Z,99.84
2022-12-08T21:06:40.318Z,99.65
2022-12-08T21:11:42.174Z,99.64
2022-12-08T21:16:44.104Z,99.89
2022-12-08T21:21:46.115Z,99.98
2022-12-08T21:26:48.161Z,99.82
2022-12-08T21:31:50.279Z,99.80
2022-12-08T21:36:53.204Z,99.82
2022-12-08T21:42:14.045Z,99.93
2022-12-08T21:47:16.001Z,99.86
2022-12-08T21:52:17.892Z,99.83
2022-12-08T21:57:20.365Z,99.99
2022-12-08T22:02:22.886Z,99.98
2022-12-08T22:07:25.070Z,99.95
2022-12-08T22:12:28.551Z,99.98
2022-12-08T22:17:30.349Z,100.00
2022-12-08T22:22:34.866Z,99.99
2022-12-08T22:27:37.006Z,100.00
2022-12-08T22:32:39.311Z,100.00
2022-12-08T22:37:41.111Z,100.00
2022-12-08T22:42:43.528Z,100.00
2022-12-08T22:47:45.352Z,100.00
2022-12-08T22:52:47.120Z,100.00
2022-12-08T22:57:48.890Z,100.00
2022-12-08T23:02:50.779Z,100.00
2022-12-08T23:07:52.582Z,100.00
2022-12-08T23:12:56.822Z,100.00
2022-12-08T23:18:01.360Z,100.00
2022-12-08T23:23:03.331Z,100.00
2022-12-08T23:28:05.415Z,100.00
2022-12-08T23:33:07.253Z,100.00
2022-12-08T23:38:09.118Z,100.00
2022-12-08T23:43:10.790Z,100.00
2022-12-08T23:48:12.450Z,100.00
2022-12-08T23:53:14.338Z,100.00
2022-12-08T23:58:16.197Z,100.00
